createdAt,value
2018-12-07T00:03:45.451Z,31.4
2018-12-07T00:09:08.081Z,28
2018-12-07T00:14:30.915Z,28.799999
2018-12-07T00:19:53.912Z,24.4
2018-12-07T00:25:16.774Z,33.200001
2018-12-07T00:30:40.619Z,32.5
2018-12-07T00:36:03.367Z,32.599998
2018-12-07T00:41:25.922Z,34.599998
2018-12-07T00:46:49.558Z,29.9
2018-12-07T00:52:12.537Z,31.6
2018-12-07T00:57:35.399Z,26.9
2018-12-07T01:02:58.076Z,34
2018-12-07T01:08:21.577Z,27.700001
2018-12-07T01:13:44.219Z,27.200001
2018-12-07T01:19:06.872Z,28.799999
2018-12-07T01:24:29.517Z,26.5
2018-12-07T01:29:53.174Z,27.6
2018-12-07T01:35:15.912Z,25
2018-12-07T01:40:38.601Z,26.5
2018-12-07T01:46:01.297Z,27.4
2018-12-07T01:51:23.941Z,26.700001
2018-12-07T01:56:46.918Z,22.299999
2018-12-07T02:02:09.811Z,27.6
2018-12-07T02:07:32.836Z,25.700001
2018-12-07T02:12:56.042Z,28.299999
2018-12-07T02:18:18.738Z,18.9
2018-12-07T02:23:41.467Z,21.6
2018-12-07T02:29:04.170Z,22.299999
2018-12-07T02:34:27.154Z,20.799999
2018-12-07T02:39:50.180Z,23.1
2018-12-07T02:45:12.968Z,23.4
2018-12-07T02:50:35.770Z,23.799999
2018-12-07T02:55:59.444Z,22.700001
2018-12-07T03:01:22.652Z,16.6
2018-12-07T03:06:45.788Z,18.799999
2018-12-07T03:12:08.559Z,22
2018-12-07T03:17:31.653Z,27.9
2018-12-07T03:22:54.337Z,28.299999
2018-12-07T03:28:17.023Z,23.1
2018-12-07T03:33:39.862Z,22.5
2018-12-07T03:39:02.601Z,23.5
2018-12-07T03:44:25.404Z,21.700001
2018-12-07T03:49:48.042Z,24.700001
2018-12-07T03:55:10.817Z,25.9
2018-12-07T04:00:33.885Z,25.6
2018-12-07T04:05:56.548Z,18.1
2018-12-07T04:11:19.410Z,21.9
2018-12-07T04:16:42.135Z,21.1
2018-12-07T04:22:05.460Z,21.1
2018-12-07T04:27:28.383Z,18.6
2018-12-07T04:32:51.248Z,17.9
2018-12-07T04:38:13.959Z,19.799999
2018-12-07T04:43:36.686Z,16.9
2018-12-07T04:48:59.655Z,14.6
2018-12-07T04:54:22.395Z,16.4
2018-12-07T04:59:45.139Z,15.6
2018-12-07T05:05:07.847Z,14.5
2018-12-07T05:10:32.161Z,14.6
2018-12-07T05:15:54.879Z,11.1
2018-12-07T05:21:17.859Z,14
2018-12-07T05:26:40.530Z,14.3
2018-12-07T05:32:03.365Z,11.9
2018-12-07T05:37:26.017Z,13.7
2018-12-07T05:42:49.190Z,13.5
2018-12-07T05:48:12.057Z,10.3
2018-12-07T05:53:34.809Z,12.4
2018-12-07T05:59:06.913Z,10.5
2018-12-07T06:04:40.279Z,9.3
2018-12-07T06:10:03.101Z,12.4
2018-12-07T06:15:25.967Z,14.5
2018-12-07T06:20:48.611Z,13.2
2018-12-07T06:26:11.358Z,14
2018-12-07T06:31:34.072Z,15.4
2018-12-07T06:36:56.868Z,13.5
2018-12-07T06:42:19.666Z,16.799999
2018-12-07T06:47:42.664Z,16.1
2018-12-07T06:53:16.318Z,13.8
2018-12-07T06:58:39.255Z,13
2018-12-07T07:04:11.928Z,13.2
2018-12-07T07:10:09.049Z,14.8
2018-12-07T07:15:42.725Z,19.299999
2018-12-07T07:21:15.416Z,17.9
2018-12-07T07:26:48.160Z,18.200001
2018-12-07T07:32:22.085Z,16.200001
2018-12-07T07:37:45.083Z,18.5
2018-12-07T07:43:17.327Z,15.2
2018-12-07T07:48:39.997Z,16.299999
2018-12-07T07:54:02.706Z,18.200001
2018-12-07T07:59:25.387Z,15.8
2018-12-07T08:04:48.123Z,14.2
2018-12-07T08:10:11.085Z,14
2018-12-07T08:15:44.959Z,18.6
2018-12-07T08:21:07.915Z,17.799999
2018-12-07T08:26:30.766Z,16.700001
2018-12-07T08:32:03.261Z,14.1
2018-12-07T08:37:26.344Z,12.5
2018-12-07T08:42:59.958Z,15.4
2018-12-07T08:48:33.838Z,13.1
2018-12-07T08:54:06.167Z,14
2018-12-07T08:59:28.914Z,12.7
2018-12-07T09:05:03.519Z,9.9
2018-12-07T09:10:28.694Z,10.5
2018-12-07T09:16:00.350Z,9.6
2018-12-07T09:21:23.243Z,9.7
2018-12-07T09:26:57.373Z,11.6
2018-12-07T09:32:56.696Z,9.7
2018-12-07T09:38:28.595Z,7.5
2018-12-07T09:44:00.955Z,6.5
2018-12-07T09:49:23.835Z,6.7
2018-12-07T09:54:47.522Z,6.8
2018-12-07T10:00:21.419Z,6.1
2018-12-07T10:05:53.662Z,5.6
2018-12-07T10:11:27.449Z,5.7
2018-12-07T10:16:50.702Z,6.6
2018-12-07T10:22:24.585Z,5.9
2018-12-07T10:28:56.577Z,7
2018-12-07T10:34:20.158Z,6.8
2018-12-07T10:40:21.283Z,8.8
2018-12-07T10:46:48.011Z,10.7
2018-12-07T10:52:47.781Z,14.4
2018-12-07T10:58:21.255Z,17
2018-12-07T11:03:53.179Z,16.1
2018-12-07T11:09:26.276Z,17.299999
2018-12-07T11:14:57.996Z,15
2018-12-07T11:20:31.132Z,14.8
2018-12-07T11:26:04.615Z,15.2
2018-12-07T11:31:36.857Z,15.5
2018-12-07T11:37:09.649Z,15.1
2018-12-07T11:42:32.460Z,14.3
2018-12-07T11:47:55.308Z,14.6
2018-12-07T11:53:18.059Z,14.2
2018-12-07T11:58:40.934Z,11.8
2018-12-07T12:04:03.707Z,10.5
2018-12-07T12:09:26.683Z,11.4
2018-12-07T12:14:49.631Z,10.5
2018-12-07T12:20:22.208Z,11.6
2018-12-07T12:25:45.163Z,12.9
2018-12-07T12:31:07.701Z,11.5
2018-12-07T12:36:31.480Z,12.2
2018-12-07T12:41:54.798Z,10
2018-12-07T12:47:17.521Z,10.8
2018-12-07T12:52:40.318Z,7.6
2018-12-07T12:58:02.959Z,7.5
2018-12-07T13:03:25.663Z,6.3
2018-12-07T13:08:48.370Z,5.7
2018-12-07T13:14:11.852Z,5.7
2018-12-07T13:19:34.561Z,6.7
2018-12-07T13:24:57.251Z,5.2
2018-12-07T13:30:20.242Z,5.6
2018-12-07T13:35:42.859Z,4.8
2018-12-07T13:41:06.198Z,5.2
2018-12-07T13:46:30.094Z,6.1
2018-12-07T13:51:52.650Z,5.2
2018-12-07T13:57:15.636Z,4.2
2018-12-07T14:02:38.383Z,4.4
2018-12-07T14:08:01.809Z,3.5
2018-12-07T14:13:24.467Z,3.5
2018-12-07T14:18:47.451Z,3.5
2018-12-07T14:24:09.906Z,3.7
2018-12-07T14:29:32.871Z,3.6
2018-12-07T14:34:55.490Z,3.6
2018-12-07T14:40:18.138Z,2.7
2018-12-07T14:45:41.113Z,2.9
2018-12-07T14:51:03.848Z,2.9
2018-12-07T14:56:29.073Z,5.1
2018-12-07T15:01:51.810Z,4.5
2018-12-07T15:07:14.640Z,5.1
2018-12-07T15:12:37.478Z,7.1
2018-12-07T15:18:00.162Z,6.7
2018-12-07T15:23:22.918Z,5.9
2018-12-07T15:28:45.980Z,7.4
2018-12-07T15:34:19.050Z,7.6
2018-12-07T15:39:50.848Z,7.3
2018-12-07T15:45:23.752Z,7
2018-12-07T15:50:46.250Z,6.5
2018-12-07T15:56:09.042Z,5.8
2018-12-07T16:01:31.791Z,4.9
2018-12-07T16:06:54.430Z,4.6
2018-12-07T16:12:17.236Z,3.5
2018-12-07T16:17:39.942Z,3.8
2018-12-07T16:23:02.919Z,3
2018-12-07T16:28:25.849Z,3.7
2018-12-07T16:33:58.062Z,3.4
2018-12-07T16:39:30.408Z,2.5
2018-12-07T16:45:03.251Z,2.3
2018-12-07T16:50:35.535Z,2
2018-12-07T16:56:07.881Z,2.2
2018-12-07T17:01:41.535Z,2.3
2018-12-07T17:07:15.803Z,3.6
2018-12-07T17:12:47.292Z,3.2
2018-12-07T17:18:21.210Z,4.9
2018-12-07T17:23:53.652Z,5.1
2018-12-07T17:29:16.706Z,6.5
2018-12-07T17:34:39.964Z,5.7
2018-12-07T17:40:02.548Z,3.8
2018-12-07T17:45:35.040Z,4.2
2018-12-07T17:50:58.802Z,4.3
2018-12-07T17:56:21.422Z,6.5
2018-12-07T18:02:22.001Z,4.7
2018-12-07T18:07:54.519Z,5.9
2018-12-07T18:13:30.208Z,5.5
2018-12-07T18:19:31.038Z,4.6
2018-12-07T18:25:06.002Z,6.1
2018-12-07T18:30:38.009Z,6.4
2018-12-07T18:36:00.885Z,7.2
2018-12-07T18:41:23.743Z,1.7
2018-12-07T18:46:47.050Z,2.3
2018-12-07T18:52:09.880Z,2.4
2018-12-07T18:57:32.619Z,3.3
2018-12-07T19:03:05.429Z,6.4
2018-12-07T19:08:38.530Z,2.8
2018-12-07T19:14:12.737Z,2.3
2018-12-07T19:19:35.362Z,2.2
2018-12-07T19:24:57.506Z,5.8
2018-12-07T19:30:20.564Z,4.6
2018-12-07T19:35:43.784Z,3.2
2018-12-07T19:41:06.842Z,3.2
2018-12-07T19:46:29.714Z,2.1
2018-12-07T19:51:53.476Z,3.1
2018-12-07T19:57:25.096Z,4.6
2018-12-07T20:02:50.416Z,3.6
2018-12-07T20:08:11.246Z,3.5
2018-12-07T20:13:44.422Z,7
2018-12-07T20:19:08.696Z,4.7
2018-12-07T20:24:31.476Z,3.9
2018-12-07T20:30:04.263Z,5.6
2018-12-07T20:35:55.938Z,4.9
2018-12-07T20:41:19.687Z,3.5
2018-12-07T20:46:42.842Z,6.4
2018-12-07T20:52:05.623Z,5.9
2018-12-07T20:57:28.300Z,8.1
2018-12-07T21:02:51.295Z,6.6
2018-12-07T21:08:14.107Z,5.3
2018-12-07T21:13:37.428Z,8.7
2018-12-07T21:19:00.408Z,6.5
2018-12-07T21:24:23.186Z,7.9
2018-12-07T21:29:46.214Z,9.7
2018-12-07T21:35:09.221Z,10.9
2018-12-07T21:40:32.478Z,8.3
2018-12-07T21:45:55.207Z,8.1
2018-12-07T21:51:18.791Z,8.2
2018-12-07T21:56:41.461Z,9.3
2018-12-07T22:02:04.160Z,7.9
2018-12-07T22:07:26.856Z,8.6
2018-12-07T22:12:50.170Z,9
2018-12-07T22:18:13.146Z,14
2018-12-07T22:23:35.719Z,10.9
2018-12-07T22:28:58.489Z,10.2
2018-12-07T22:34:21.366Z,6.5
2018-12-07T22:39:44.102Z,10.5
2018-12-07T22:45:06.935Z,9.8
2018-12-07T22:50:31.373Z,12
2018-12-07T22:55:54.132Z,11.7
2018-12-07T23:01:17.490Z,10.7
2018-12-07T23:06:40.158Z,15.3
2018-12-07T23:12:03.043Z,10.7
2018-12-07T23:17:25.751Z,12.8
2018-12-07T23:22:49.001Z,15
2018-12-07T23:28:11.295Z,14.7
2018-12-07T23:33:33.978Z,9.3
2018-12-07T23:38:56.679Z,9.6
2018-12-07T23:44:19.362Z,9.8
2018-12-07T23:49:42.184Z,5.4
2018-12-07T23:55:04.906Z,7.5
